METAR Data
IDs: Format: Raw Decoded Include TAF

Data at: 1924 UTC 31 Jul 2021

ESSB 311850Z AUTO 15004KT 9999 SCT070/// OVC084/// 18/15 Q0997